sensor_id;sensor_type;location;lat;lon;timestamp;P1;durP1;ratioP1;P2;durP2;ratioP2
13240;SDS011;6687;47.790;7.322;2023-03-01T06:11:10;1.30;;;1.10;;
13240;SDS011;6687;47.790;7.322;2023-03-01T06:13:37;0.77;;;0.77;;
13240;SDS011;6687;47.790;7.322;2023-03-01T06:16:04;0.80;;;0.80;;
13240;SDS011;6687;47.790;7.322;2023-03-01T06:18:32;0.80;;;0.80;;
13240;SDS011;6687;47.790;7.322;2023-03-01T06:20:58;0.23;;;0.23;;
13240;SDS011;6687;47.790;7.322;2023-03-01T06:23:25;0.97;;;0.97;;
13240;SDS011;6687;47.790;7.322;2023-03-01T06:25:52;0.53;;;0.30;;
13240;SDS011;6687;47.790;7.322;2023-03-01T06:28:20;0.27;;;0.20;;
13240;SDS011;6687;47.790;7.322;2023-03-01T06:30:47;0.83;;;0.67;;
13240;SDS011;6687;47.790;7.322;2023-03-01T06:33:13;0.67;;;0.67;;
13240;SDS011;6687;47.790;7.322;2023-03-01T06:35:40;0.47;;;0.47;;
13240;SDS011;6687;47.790;7.322;2023-03-01T06:38:07;1.63;;;1.23;;
13240;SDS011;6687;47.790;7.322;2023-03-01T06:40:33;0.47;;;0.47;;
13240;SDS011;6687;47.790;7.322;2023-03-01T06:43:01;0.37;;;0.33;;
13240;SDS011;6687;47.790;7.322;2023-03-01T06:45:29;0.53;;;0.53;;
13240;SDS011;6687;47.790;7.322;2023-03-01T06:48:01;1.17;;;1.07;;
13240;SDS011;6687;47.790;7.322;2023-03-01T06:50:29;0.20;;;0.20;;
13240;SDS011;6687;47.790;7.322;2023-03-01T06:52:56;0.30;;;0.20;;
13240;SDS011;6687;47.790;7.322;2023-03-01T06:55:23;0.20;;;0.20;;
13240;SDS011;6687;47.790;7.322;2023-03-01T06:57:53;1.00;;;0.80;;
13240;SDS011;6687;47.790;7.322;2023-03-01T07:00:21;0.87;;;0.67;;
13240;SDS011;6687;47.790;7.322;2023-03-01T07:02:50;0.20;;;0.20;;
13240;SDS011;6687;47.790;7.322;2023-03-01T07:05:17;0.43;;;0.43;;
13240;SDS011;6687;47.790;7.322;2023-03-01T07:07:43;0.77;;;0.77;;
13240;SDS011;6687;47.790;7.322;2023-03-01T07:10:11;0.67;;;0.67;;
13240;SDS011;6687;47.790;7.322;2023-03-01T07:12:38;0.97;;;0.97;;
13240;SDS011;6687;47.790;7.322;2023-03-01T07:15:07;0.43;;;0.20;;
13240;SDS011;6687;47.790;7.322;2023-03-01T07:17:35;0.63;;;0.23;;
13240;SDS011;6687;47.790;7.322;2023-03-01T07:20:04;0.50;;;0.50;;
13240;SDS011;6687;47.790;7.322;2023-03-01T07:22:31;0.47;;;0.27;;
13240;SDS011;6687;47.790;7.322;2023-03-01T07:24:58;1.47;;;1.37;;
13240;SDS011;6687;47.790;7.322;2023-03-01T07:27:24;1.07;;;0.80;;
13240;SDS011;6687;47.790;7.322;2023-03-01T07:29:51;1.63;;;1.13;;
13240;SDS011;6687;47.790;7.322;2023-03-01T07:32:18;1.43;;;0.67;;
13240;SDS011;6687;47.790;7.322;2023-03-01T07:34:44;0.80;;;0.80;;
13240;SDS011;6687;47.790;7.322;2023-03-01T07:37:12;0.53;;;0.53;;
13240;SDS011;6687;47.790;7.322;2023-03-01T07:39:39;1.03;;;0.80;;
13240;SDS011;6687;47.790;7.322;2023-03-01T07:42:07;0.70;;;0.60;;
13240;SDS011;6687;47.790;7.322;2023-03-01T07:44:33;0.90;;;0.63;;
13240;SDS011;6687;47.790;7.322;2023-03-01T07:47:00;0.97;;;0.97;;
13240;SDS011;6687;47.790;7.322;2023-03-01T07:49:27;1.10;;;0.63;;
13240;SDS011;6687;47.790;7.322;2023-03-01T07:51:53;0.70;;;0.70;;
13240;SDS011;6687;47.790;7.322;2023-03-01T07:54:22;0.73;;;0.73;;
13240;SDS011;6687;47.790;7.322;2023-03-01T07:56:49;0.67;;;0.67;;
13240;SDS011;6687;47.790;7.322;2023-03-01T07:59:15;0.57;;;0.57;;
13240;SDS011;6687;47.790;7.322;2023-03-01T08:01:42;0.90;;;0.90;;
13240;SDS011;6687;47.790;7.322;2023-03-01T08:04:09;0.63;;;0.63;;
13240;SDS011;6687;47.790;7.322;2023-03-01T08:06:36;0.77;;;0.70;;
13240;SDS011;6687;47.790;7.322;2023-03-01T08:09:02;1.23;;;0.73;;
13240;SDS011;6687;47.790;7.322;2023-03-01T08:11:30;0.17;;;0.17;;
13240;SDS011;6687;47.790;7.322;2023-03-01T08:13:57;1.30;;;1.20;;
13240;SDS011;6687;47.790;7.322;2023-03-01T08:16:24;0.83;;;0.53;;
13240;SDS011;6687;47.790;7.322;2023-03-01T08:18:50;0.63;;;0.63;;
13240;SDS011;6687;47.790;7.322;2023-03-01T08:21:17;1.17;;;1.07;;
13240;SDS011;6687;47.790;7.322;2023-03-01T08:23:44;1.43;;;0.73;;
13240;SDS011;6687;47.790;7.322;2023-03-01T08:26:12;0.73;;;0.73;;
13240;SDS011;6687;47.790;7.322;2023-03-01T08:28:41;1.47;;;1.37;;
13240;SDS011;6687;47.790;7.322;2023-03-01T08:31:15;1.80;;;1.07;;
13240;SDS011;6687;47.790;7.322;2023-03-01T08:33:44;0.87;;;0.87;;
13240;SDS011;6687;47.790;7.322;2023-03-01T08:36:15;2.03;;;1.87;;
13240;SDS011;6687;47.790;7.322;2023-03-01T08:38:42;1.07;;;1.03;;
13240;SDS011;6687;47.790;7.322;2023-03-01T08:41:10;1.13;;;0.93;;
13240;SDS011;6687;47.790;7.322;2023-03-01T08:43:37;0.77;;;0.77;;
13240;SDS011;6687;47.790;7.322;2023-03-01T08:46:05;0.97;;;0.90;;
13240;SDS011;6687;47.790;7.322;2023-03-01T08:48:32;0.83;;;0.80;;
13240;SDS011;6687;47.790;7.322;2023-03-01T08:51:06;1.53;;;0.93;;
13240;SDS011;6687;47.790;7.322;2023-03-01T08:53:34;1.43;;;1.33;;
13240;SDS011;6687;47.790;7.322;2023-03-01T08:56:01;1.23;;;0.90;;
13240;SDS011;6687;47.790;7.322;2023-03-01T08:58:28;1.37;;;1.37;;
13240;SDS011;6687;47.790;7.322;2023-03-01T09:00:55;0.77;;;0.77;;
13240;SDS011;6687;47.790;7.322;2023-03-01T09:03:24;4.07;;;2.20;;
13240;SDS011;6687;47.790;7.322;2023-03-01T09:05:51;1.37;;;1.30;;
13240;SDS011;6687;47.790;7.322;2023-03-01T09:08:18;1.77;;;0.93;;
13240;SDS011;6687;47.790;7.322;2023-03-01T09:10:45;0.80;;;0.80;;
13240;SDS011;6687;47.790;7.322;2023-03-01T09:13:12;1.83;;;1.73;;
13240;SDS011;6687;47.790;7.322;2023-03-01T09:15:39;2.27;;;1.17;;
13240;SDS011;6687;47.790;7.322;2023-03-01T09:18:07;2.60;;;2.40;;
13240;SDS011;6687;47.790;7.322;2023-03-01T09:20:35;1.03;;;1.03;;
13240;SDS011;6687;47.790;7.322;2023-03-01T09:23:02;1.37;;;1.27;;
13240;SDS011;6687;47.790;7.322;2023-03-01T09:25:28;1.17;;;1.13;;
13240;SDS011;6687;47.790;7.322;2023-03-01T09:27:55;0.83;;;0.83;;
13240;SDS011;6687;47.790;7.322;2023-03-01T09:30:22;0.77;;;0.77;;
13240;SDS011;6687;47.790;7.322;2023-03-01T09:32:49;0.77;;;0.70;;
13240;SDS011;6687;47.790;7.322;2023-03-01T09:35:16;0.77;;;0.77;;
13240;SDS011;6687;47.790;7.322;2023-03-01T09:37:45;1.50;;;1.40;;
13240;SDS011;6687;47.790;7.322;2023-03-01T09:40:12;1.03;;;0.90;;
13240;SDS011;6687;47.790;7.322;2023-03-01T09:42:46;1.70;;;1.17;;
13240;SDS011;6687;47.790;7.322;2023-03-01T09:45:20;1.70;;;1.00;;
13240;SDS011;6687;47.790;7.322;2023-03-01T09:47:53;2.10;;;1.70;;
13240;SDS011;6687;47.790;7.322;2023-03-01T09:50:21;2.10;;;1.03;;
13240;SDS011;6687;47.790;7.322;2023-03-01T09:53:00;0.83;;;0.83;;
13240;SDS011;6687;47.790;7.322;2023-03-01T09:55:31;3.87;;;1.27;;
13240;SDS011;6687;47.790;7.322;2023-03-01T09:58:00;1.77;;;1.33;;
13240;SDS011;6687;47.790;7.322;2023-03-01T10:00:50;0.87;;;0.80;;
13240;SDS011;6687;47.790;7.322;2023-03-01T10:03:17;1.67;;;1.43;;
13240;SDS011;6687;47.790;7.322;2023-03-01T10:05:53;0.93;;;0.93;;
13240;SDS011;6687;47.790;7.322;2023-03-01T10:08:28;2.23;;;1.00;;
13240;SDS011;6687;47.790;7.322;2023-03-01T10:11:01;1.10;;;0.93;;
13240;SDS011;6687;47.790;7.322;2023-03-01T10:13:45;0.57;;;0.57;;
13240;SDS011;6687;47.790;7.322;2023-03-01T10:16:19;1.67;;;1.57;;
13240;SDS011;6687;47.790;7.322;2023-03-01T10:18:53;0.73;;;0.60;;
13240;SDS011;6687;47.790;7.322;2023-03-01T10:21:25;2.57;;;1.40;;
13240;SDS011;6687;47.790;7.322;2023-03-01T10:23:56;1.77;;;1.20;;
13240;SDS011;6687;47.790;7.322;2023-03-01T10:26:35;1.90;;;1.33;;
13240;SDS011;6687;47.790;7.322;2023-03-01T10:29:09;0.87;;;0.87;;
13240;SDS011;6687;47.790;7.322;2023-03-01T10:31:39;0.63;;;0.63;;
13240;SDS011;6687;47.790;7.322;2023-03-01T10:34:13;0.40;;;0.40;;
13240;SDS011;6687;47.790;7.322;2023-03-01T10:36:42;1.23;;;1.13;;
13240;SDS011;6687;47.790;7.322;2023-03-01T10:39:15;2.00;;;1.70;;
13240;SDS011;6687;47.790;7.322;2023-03-01T10:41:57;1.23;;;1.13;;
13240;SDS011;6687;47.790;7.322;2023-03-01T10:44:42;2.73;;;1.33;;
13240;SDS011;6687;47.790;7.322;2023-03-01T10:47:13;1.10;;;1.10;;
13240;SDS011;6687;47.790;7.322;2023-03-01T10:49:51;1.40;;;1.10;;
13240;SDS011;6687;47.790;7.322;2023-03-01T10:52:20;1.17;;;1.07;;
13240;SDS011;6687;47.790;7.322;2023-03-01T10:54:53;1.40;;;1.30;;
13240;SDS011;6687;47.790;7.322;2023-03-01T10:57:27;1.40;;;1.30;;
13240;SDS011;6687;47.790;7.322;2023-03-01T11:02:45;2.35;;;1.95;;
13240;SDS011;6687;47.790;7.322;2023-03-01T11:05:16;1.60;;;1.07;;
13240;SDS011;6687;47.790;7.322;2023-03-01T11:07:48;3.55;;;0.93;;
13240;SDS011;6687;47.790;7.322;2023-03-01T11:10:19;2.43;;;1.33;;
13240;SDS011;6687;47.790;7.322;2023-03-01T11:12:47;1.77;;;1.20;;
13240;SDS011;6687;47.790;7.322;2023-03-01T11:15:21;1.10;;;1.10;;
13240;SDS011;6687;47.790;7.322;2023-03-01T11:17:50;1.07;;;0.97;;
13240;SDS011;6687;47.790;7.322;2023-03-01T11:20:24;0.70;;;0.70;;
13240;SDS011;6687;47.790;7.322;2023-03-01T11:22:55;0.50;;;0.50;;
13240;SDS011;6687;47.790;7.322;2023-03-01T11:25:26;2.08;;;1.20;;
13240;SDS011;6687;47.790;7.322;2023-03-01T11:27:58;0.93;;;0.85;;
13240;SDS011;6687;47.790;7.322;2023-03-01T11:30:29;4.57;;;2.30;;
13240;SDS011;6687;47.790;7.322;2023-03-01T11:33:03;0.65;;;0.65;;
13240;SDS011;6687;47.790;7.322;2023-03-01T11:35:41;1.17;;;1.13;;
13240;SDS011;6687;47.790;7.322;2023-03-01T11:38:15;0.77;;;0.77;;
13240;SDS011;6687;47.790;7.322;2023-03-01T11:40:49;1.20;;;1.02;;
13240;SDS011;6687;47.790;7.322;2023-03-01T11:43:20;2.88;;;1.77;;
13240;SDS011;6687;47.790;7.322;2023-03-01T11:52:09;1.30;;;0.95;;
13240;SDS011;6687;47.790;7.322;2023-03-01T11:54:47;1.90;;;1.27;;
13240;SDS011;6687;47.790;7.322;2023-03-01T11:57:31;1.05;;;0.70;;
13240;SDS011;6687;47.790;7.322;2023-03-01T12:00:15;2.05;;;1.85;;
13240;SDS011;6687;47.790;7.322;2023-03-01T12:05:49;1.02;;;1.02;;
13240;SDS011;6687;47.790;7.322;2023-03-01T12:08:29;2.13;;;1.73;;
13240;SDS011;6687;47.790;7.322;2023-03-01T12:11:03;0.77;;;0.77;;
13240;SDS011;6687;47.790;7.322;2023-03-01T12:13:47;2.03;;;1.20;;
13240;SDS011;6687;47.790;7.322;2023-03-01T12:16:31;1.23;;;1.13;;
13240;SDS011;6687;47.790;7.322;2023-03-01T12:22:21;1.08;;;1.05;;
13240;SDS011;6687;47.790;7.322;2023-03-01T12:25:05;4.03;;;1.38;;
13240;SDS011;6687;47.790;7.322;2023-03-01T12:27:54;1.33;;;0.93;;
13240;SDS011;6687;47.790;7.322;2023-03-01T12:30:35;2.05;;;1.02;;
13240;SDS011;6687;47.790;7.322;2023-03-01T12:33:17;1.67;;;1.15;;
13240;SDS011;6687;47.790;7.322;2023-03-01T12:36:11;1.17;;;1.08;;
13240;SDS011;6687;47.790;7.322;2023-03-01T12:38:54;1.65;;;1.40;;
13240;SDS011;6687;47.790;7.322;2023-03-01T12:41:36;2.42;;;1.83;;
13240;SDS011;6687;47.790;7.322;2023-03-01T12:44:23;1.33;;;1.23;;
13240;SDS011;6687;47.790;7.322;2023-03-01T12:47:14;1.80;;;0.95;;
13240;SDS011;6687;47.790;7.322;2023-03-01T12:49:49;3.45;;;1.77;;
13240;SDS011;6687;47.790;7.322;2023-03-01T12:52:23;1.15;;;1.10;;
13240;SDS011;6687;47.790;7.322;2023-03-01T12:54:57;1.33;;;1.23;;
13240;SDS011;6687;47.790;7.322;2023-03-01T12:57:28;1.48;;;1.10;;
13240;SDS011;6687;47.790;7.322;2023-03-01T13:00:04;0.60;;;0.60;;
13240;SDS011;6687;47.790;7.322;2023-03-01T13:02:45;1.45;;;1.15;;
13240;SDS011;6687;47.790;7.322;2023-03-01T13:05:20;1.73;;;0.80;;
13240;SDS011;6687;47.790;7.322;2023-03-01T13:07:55;2.47;;;1.75;;
13240;SDS011;6687;47.790;7.322;2023-03-01T13:10:31;1.05;;;1.05;;
13240;SDS011;6687;47.790;7.322;2023-03-01T13:13:02;1.38;;;0.85;;
13240;SDS011;6687;47.790;7.322;2023-03-01T13:15:39;1.00;;;1.00;;
13240;SDS011;6687;47.790;7.322;2023-03-01T13:20:57;1.02;;;0.93;;
13240;SDS011;6687;47.790;7.322;2023-03-01T13:23:26;2.63;;;1.55;;
13240;SDS011;6687;47.790;7.322;2023-03-01T13:26:06;2.47;;;1.35;;
13240;SDS011;6687;47.790;7.322;2023-03-01T13:28:40;1.58;;;1.10;;
13240;SDS011;6687;47.790;7.322;2023-03-01T13:37:25;1.55;;;1.27;;
13240;SDS011;6687;47.790;7.322;2023-03-01T13:39:57;2.08;;;1.20;;
13240;SDS011;6687;47.790;7.322;2023-03-01T13:42:33;1.67;;;1.58;;
13240;SDS011;6687;47.790;7.322;2023-03-01T13:45:03;0.95;;;0.82;;
13240;SDS011;6687;47.790;7.322;2023-03-01T13:47:40;1.75;;;1.15;;
13240;SDS011;6687;47.790;7.322;2023-03-01T13:50:16;1.38;;;1.02;;
13240;SDS011;6687;47.790;7.322;2023-03-01T13:52:47;0.63;;;0.63;;
13240;SDS011;6687;47.790;7.322;2023-03-01T13:55:18;1.33;;;0.93;;
13240;SDS011;6687;47.790;7.322;2023-03-01T13:57:47;1.90;;;1.73;;
13240;SDS011;6687;47.790;7.322;2023-03-01T14:00:26;3.97;;;1.75;;
13240;SDS011;6687;47.790;7.322;2023-03-01T14:03:02;1.35;;;0.70;;
13240;SDS011;6687;47.790;7.322;2023-03-01T14:05:32;5.13;;;3.10;;
13240;SDS011;6687;47.790;7.322;2023-03-01T14:08:01;3.08;;;2.78;;
13240;SDS011;6687;47.790;7.322;2023-03-01T14:10:29;1.67;;;1.42;;
13240;SDS011;6687;47.790;7.322;2023-03-01T14:13:02;1.73;;;1.30;;
13240;SDS011;6687;47.790;7.322;2023-03-01T14:15:44;0.57;;;0.57;;
13240;SDS011;6687;47.790;7.322;2023-03-01T14:18:18;1.15;;;1.15;;
13240;SDS011;6687;47.790;7.322;2023-03-01T14:20:51;1.40;;;1.30;;
13240;SDS011;6687;47.790;7.322;2023-03-01T14:23:18;1.42;;;1.33;;
13240;SDS011;6687;47.790;7.322;2023-03-01T14:25:48;1.42;;;1.33;;
13240;SDS011;6687;47.790;7.322;2023-03-01T14:28:16;1.00;;;0.90;;
13240;SDS011;6687;47.790;7.322;2023-03-01T14:30:46;1.00;;;1.00;;
13240;SDS011;6687;47.790;7.322;2023-03-01T14:33:19;0.95;;;0.95;;
13240;SDS011;6687;47.790;7.322;2023-03-01T14:35:53;1.67;;;1.17;;
13240;SDS011;6687;47.790;7.322;2023-03-01T14:38:23;1.42;;;1.33;;
13240;SDS011;6687;47.790;7.322;2023-03-01T14:40:55;0.75;;;0.60;;
13240;SDS011;6687;47.790;7.322;2023-03-01T14:43:24;1.23;;;0.90;;
13240;SDS011;6687;47.790;7.322;2023-03-01T14:45:52;1.27;;;0.90;;
13240;SDS011;6687;47.790;7.322;2023-03-01T14:48:18;1.27;;;0.88;;
13240;SDS011;6687;47.790;7.322;2023-03-01T14:50:45;2.08;;;1.25;;
13240;SDS011;6687;47.790;7.322;2023-03-01T14:53:16;2.45;;;1.80;;
13240;SDS011;6687;47.790;7.322;2023-03-01T14:55:46;2.33;;;1.80;;
13240;SDS011;6687;47.790;7.322;2023-03-01T14:58:17;1.23;;;0.88;;
13240;SDS011;6687;47.790;7.322;2023-03-01T15:00:46;1.67;;;1.58;;
13240;SDS011;6687;47.790;7.322;2023-03-01T15:03:18;1.20;;;1.10;;
13240;SDS011;6687;47.790;7.322;2023-03-01T15:05:50;1.92;;;1.83;;
13240;SDS011;6687;47.790;7.322;2023-03-01T15:08:20;1.38;;;1.35;;
13240;SDS011;6687;47.790;7.322;2023-03-01T15:10:56;1.50;;;1.02;;
13240;SDS011;6687;47.790;7.322;2023-03-01T15:13:28;1.92;;;1.55;;
13240;SDS011;6687;47.790;7.322;2023-03-01T15:16:01;2.40;;;1.67;;
13240;SDS011;6687;47.790;7.322;2023-03-01T15:18:31;1.83;;;1.33;;
13240;SDS011;6687;47.790;7.322;2023-03-01T15:21:05;1.30;;;1.17;;
13240;SDS011;6687;47.790;7.322;2023-03-01T15:23:34;2.70;;;2.25;;
13240;SDS011;6687;47.790;7.322;2023-03-01T15:26:03;2.88;;;2.33;;
13240;SDS011;6687;47.790;7.322;2023-03-01T15:28:30;4.35;;;3.22;;
13240;SDS011;6687;47.790;7.322;2023-03-01T15:31:00;5.63;;;3.78;;
13240;SDS011;6687;47.790;7.322;2023-03-01T15:33:31;1.27;;;1.15;;
13240;SDS011;6687;47.790;7.322;2023-03-01T15:35:59;6.13;;;3.30;;
13240;SDS011;6687;47.790;7.322;2023-03-01T15:38:36;3.35;;;3.05;;
13240;SDS011;6687;47.790;7.322;2023-03-01T15:41:22;3.47;;;2.90;;
13240;SDS011;6687;47.790;7.322;2023-03-01T15:43:50;3.97;;;3.58;;
13240;SDS011;6687;47.790;7.322;2023-03-01T15:46:21;3.08;;;2.60;;
13240;SDS011;6687;47.790;7.322;2023-03-01T15:48:52;1.70;;;1.52;;
13240;SDS011;6687;47.790;7.322;2023-03-01T15:51:22;2.58;;;2.35;;
13240;SDS011;6687;47.790;7.322;2023-03-01T15:53:57;3.10;;;1.52;;
13240;SDS011;6687;47.790;7.322;2023-03-01T15:56:26;2.13;;;1.95;;
13240;SDS011;6687;47.790;7.322;2023-03-01T15:58:57;2.08;;;1.58;;
13240;SDS011;6687;47.790;7.322;2023-03-01T16:01:25;4.65;;;3.05;;
13240;SDS011;6687;47.790;7.322;2023-03-01T16:03:52;5.20;;;2.92;;
13240;SDS011;6687;47.790;7.322;2023-03-01T16:06:19;2.85;;;2.63;;
13240;SDS011;6687;47.790;7.322;2023-03-01T16:08:46;6.72;;;3.67;;
13240;SDS011;6687;47.790;7.322;2023-03-01T16:11:15;5.15;;;3.60;;
13240;SDS011;6687;47.790;7.322;2023-03-01T16:13:44;3.15;;;2.88;;
13240;SDS011;6687;47.790;7.322;2023-03-01T16:16:11;4.65;;;3.38;;
13240;SDS011;6687;47.790;7.322;2023-03-01T16:18:41;2.85;;;2.45;;
13240;SDS011;6687;47.790;7.322;2023-03-01T16:21:10;1.85;;;1.75;;
13240;SDS011;6687;47.790;7.322;2023-03-01T16:23:38;2.22;;;2.03;;
13240;SDS011;6687;47.790;7.322;2023-03-01T16:26:05;2.45;;;2.13;;
13240;SDS011;6687;47.790;7.322;2023-03-01T16:28:33;2.00;;;1.80;;
13240;SDS011;6687;47.790;7.322;2023-03-01T16:31:00;2.28;;;1.88;;
13240;SDS011;6687;47.790;7.322;2023-03-01T16:33:27;2.95;;;2.65;;
13240;SDS011;6687;47.790;7.322;2023-03-01T16:35:53;4.10;;;2.33;;
13240;SDS011;6687;47.790;7.322;2023-03-01T16:38:20;4.40;;;2.92;;
13240;SDS011;6687;47.790;7.322;2023-03-01T16:40:48;3.78;;;2.65;;
13240;SDS011;6687;47.790;7.322;2023-03-01T16:43:16;6.20;;;3.25;;
13240;SDS011;6687;47.790;7.322;2023-03-01T16:45:44;3.33;;;2.63;;
13240;SDS011;6687;47.790;7.322;2023-03-01T16:48:11;2.90;;;2.35;;
13240;SDS011;6687;47.790;7.322;2023-03-01T16:50:38;3.30;;;3.00;;
13240;SDS011;6687;47.790;7.322;2023-03-01T16:53:05;6.93;;;2.50;;
13240;SDS011;6687;47.790;7.322;2023-03-01T16:55:31;3.00;;;2.45;;
13240;SDS011;6687;47.790;7.322;2023-03-01T16:57:59;3.63;;;2.85;;
13240;SDS011;6687;47.790;7.322;2023-03-01T17:00:25;3.85;;;2.58;;
13240;SDS011;6687;47.790;7.322;2023-03-01T17:02:54;2.45;;;1.70;;
13240;SDS011;6687;47.790;7.322;2023-03-01T17:05:21;3.22;;;2.22;;
13240;SDS011;6687;47.790;7.322;2023-03-01T17:07:49;5.28;;;3.55;;
13240;SDS011;6687;47.790;7.322;2023-03-01T17:10:16;3.42;;;2.13;;
13240;SDS011;6687;47.790;7.322;2023-03-01T17:12:43;3.58;;;1.60;;
13240;SDS011;6687;47.790;7.322;2023-03-01T17:15:10;1.67;;;1.35;;
13240;SDS011;6687;47.790;7.322;2023-03-01T17:17:37;2.22;;;1.95;;
13240;SDS011;6687;47.790;7.322;2023-03-01T17:20:06;2.17;;;1.77;;
13240;SDS011;6687;47.790;7.322;2023-03-01T17:22:34;4.60;;;2.00;;
13240;SDS011;6687;47.790;7.322;2023-03-01T17:25:01;4.60;;;1.60;;
13240;SDS011;6687;47.790;7.322;2023-03-01T17:27:27;2.65;;;2.03;;
13240;SDS011;6687;47.790;7.322;2023-03-01T17:29:54;3.08;;;1.77;;
13240;SDS011;6687;47.790;7.322;2023-03-01T17:32:21;1.67;;;1.58;;
13240;SDS011;6687;47.790;7.322;2023-03-01T17:34:48;2.47;;;1.55;;
13240;SDS011;6687;47.790;7.322;2023-03-01T17:37:16;2.13;;;1.77;;
13240;SDS011;6687;47.790;7.322;2023-03-01T17:39:42;3.78;;;2.08;;
13240;SDS011;6687;47.790;7.322;2023-03-01T17:42:09;2.88;;;2.60;;
13240;SDS011;6687;47.790;7.322;2023-03-01T17:44:36;5.03;;;2.75;;
13240;SDS011;6687;47.790;7.322;2023-03-01T17:47:03;3.15;;;2.60;;
13240;SDS011;6687;47.790;7.322;2023-03-01T17:49:31;3.88;;;2.65;;
13240;SDS011;6687;47.790;7.322;2023-03-01T17:51:58;3.15;;;2.45;;
13240;SDS011;6687;47.790;7.322;2023-03-01T17:54:26;6.63;;;3.17;;
13240;SDS011;6687;47.790;7.322;2023-03-01T17:56:53;6.25;;;4.40;;
13240;SDS011;6687;47.790;7.322;2023-03-01T17:59:22;4.13;;;2.78;;
13240;SDS011;6687;47.790;7.322;2023-03-01T18:01:55;8.48;;;3.83;;
13240;SDS011;6687;47.790;7.322;2023-03-01T18:04:22;7.40;;;4.90;;
13240;SDS011;6687;47.790;7.322;2023-03-01T18:06:49;6.07;;;3.97;;
13240;SDS011;6687;47.790;7.322;2023-03-01T18:09:15;6.78;;;4.30;;
13240;SDS011;6687;47.790;7.322;2023-03-01T18:11:43;4.13;;;2.67;;
13240;SDS011;6687;47.790;7.322;2023-03-01T18:14:10;6.40;;;3.05;;
13240;SDS011;6687;47.790;7.322;2023-03-01T18:16:37;4.30;;;2.35;;
13240;SDS011;6687;47.790;7.322;2023-03-01T18:19:04;4.40;;;1.75;;
13240;SDS011;6687;47.790;7.322;2023-03-01T18:21:31;2.22;;;2.00;;
13240;SDS011;6687;47.790;7.322;2023-03-01T18:23:58;1.90;;;1.35;;
13240;SDS011;6687;47.790;7.322;2023-03-01T18:26:24;2.15;;;1.95;;
13240;SDS011;6687;47.790;7.322;2023-03-01T18:28:54;1.80;;;1.70;;
13240;SDS011;6687;47.790;7.322;2023-03-01T18:31:25;1.35;;;1.17;;
13240;SDS011;6687;47.790;7.322;2023-03-01T18:33:52;6.20;;;2.50;;
13240;SDS011;6687;47.790;7.322;2023-03-01T18:36:20;7.22;;;3.25;;
13240;SDS011;6687;47.790;7.322;2023-03-01T18:38:49;1.80;;;1.63;;
13240;SDS011;6687;47.790;7.322;2023-03-01T18:41:17;6.68;;;3.30;;
13240;SDS011;6687;47.790;7.322;2023-03-01T18:43:44;4.72;;;2.55;;
13240;SDS011;6687;47.790;7.322;2023-03-01T18:46:13;3.03;;;2.22;;
13240;SDS011;6687;47.790;7.322;2023-03-01T18:48:39;5.45;;;2.58;;
13240;SDS011;6687;47.790;7.322;2023-03-01T18:51:07;4.53;;;2.22;;
13240;SDS011;6687;47.790;7.322;2023-03-01T18:53:35;3.03;;;2.10;;
13240;SDS011;6687;47.790;7.322;2023-03-01T18:56:01;2.80;;;2.50;;
13240;SDS011;6687;47.790;7.322;2023-03-01T18:58:28;3.05;;;2.20;;
13240;SDS011;6687;47.790;7.322;2023-03-01T19:00:55;1.88;;;1.77;;
13240;SDS011;6687;47.790;7.322;2023-03-01T19:03:23;4.22;;;2.47;;
13240;SDS011;6687;47.790;7.322;2023-03-01T19:05:50;2.47;;;2.17;;
13240;SDS011;6687;47.790;7.322;2023-03-01T19:08:16;6.50;;;3.17;;
13240;SDS011;6687;47.790;7.322;2023-03-01T19:10:43;3.13;;;2.83;;
13240;SDS011;6687;47.790;7.322;2023-03-01T19:13:10;3.63;;;2.55;;
13240;SDS011;6687;47.790;7.322;2023-03-01T19:15:36;2.25;;;1.70;;
13240;SDS011;6687;47.790;7.322;2023-03-01T19:18:03;4.13;;;2.03;;
13240;SDS011;6687;47.790;7.322;2023-03-01T19:20:31;2.35;;;2.15;;
13240;SDS011;6687;47.790;7.322;2023-03-01T19:22:58;5.22;;;2.83;;
13240;SDS011;6687;47.790;7.322;2023-03-01T19:25:25;6.25;;;3.45;;
13240;SDS011;6687;47.790;7.322;2023-03-01T19:27:51;4.75;;;2.92;;
13240;SDS011;6687;47.790;7.322;2023-03-01T19:30:18;4.57;;;2.63;;
13240;SDS011;6687;47.790;7.322;2023-03-01T19:32:45;4.05;;;2.70;;
13240;SDS011;6687;47.790;7.322;2023-03-01T19:35:11;4.15;;;2.88;;
13240;SDS011;6687;47.790;7.322;2023-03-01T19:37:39;3.60;;;3.00;;
13240;SDS011;6687;47.790;7.322;2023-03-01T19:40:07;3.17;;;2.03;;
13240;SDS011;6687;47.790;7.322;2023-03-01T19:42:35;2.30;;;1.75;;
13240;SDS011;6687;47.790;7.322;2023-03-01T19:45:02;4.13;;;2.33;;
13240;SDS011;6687;47.790;7.322;2023-03-01T19:47:28;4.72;;;2.67;;
13240;SDS011;6687;47.790;7.322;2023-03-01T19:49:55;3.00;;;2.38;;
13240;SDS011;6687;47.790;7.322;2023-03-01T19:52:22;3.30;;;2.78;;
13240;SDS011;6687;47.790;7.322;2023-03-01T19:54:50;3.17;;;2.30;;
13240;SDS011;6687;47.790;7.322;2023-03-01T19:57:17;3.78;;;2.58;;
13240;SDS011;6687;47.790;7.322;2023-03-01T19:59:43;4.22;;;2.50;;
13240;SDS011;6687;47.790;7.322;2023-03-01T20:02:10;3.40;;;2.08;;
13240;SDS011;6687;47.790;7.322;2023-03-01T20:04:37;4.30;;;2.53;;
13240;SDS011;6687;47.790;7.322;2023-03-01T20:07:06;4.45;;;3.15;;
13240;SDS011;6687;47.790;7.322;2023-03-01T20:09:33;2.78;;;2.00;;
13240;SDS011;6687;47.790;7.322;2023-03-01T20:12:01;1.77;;;1.67;;
13240;SDS011;6687;47.790;7.322;2023-03-01T20:14:27;2.95;;;2.33;;
13240;SDS011;6687;47.790;7.322;2023-03-01T20:16:54;2.75;;;2.30;;
13240;SDS011;6687;47.790;7.322;2023-03-01T20:19:21;3.33;;;2.42;;
13240;SDS011;6687;47.790;7.322;2023-03-01T20:21:48;5.82;;;3.10;;
13240;SDS011;6687;47.790;7.322;2023-03-01T20:24:15;3.15;;;2.47;;
13240;SDS011;6687;47.790;7.322;2023-03-01T20:26:42;3.47;;;3.17;;
13240;SDS011;6687;47.790;7.322;2023-03-01T20:29:10;2.45;;;1.98;;
13240;SDS011;6687;47.790;7.322;2023-03-01T20:31:37;3.47;;;2.55;;
13240;SDS011;6687;47.790;7.322;2023-03-01T20:34:05;4.82;;;3.25;;
13240;SDS011;6687;47.790;7.322;2023-03-01T20:36:32;3.38;;;2.63;;
13240;SDS011;6687;47.790;7.322;2023-03-01T20:38:59;4.15;;;2.47;;
13240;SDS011;6687;47.790;7.322;2023-03-01T20:41:26;3.00;;;2.63;;
13240;SDS011;6687;47.790;7.322;2023-03-01T20:43:53;2.67;;;2.47;;
13240;SDS011;6687;47.790;7.322;2023-03-01T20:46:22;4.32;;;3.03;;
13240;SDS011;6687;47.790;7.322;2023-03-01T20:48:50;1.98;;;1.88;;
13240;SDS011;6687;47.790;7.322;2023-03-01T20:51:17;6.03;;;2.83;;
13240;SDS011;6687;47.790;7.322;2023-03-01T20:53:45;3.13;;;2.28;;
13240;SDS011;6687;47.790;7.322;2023-03-01T20:56:12;3.22;;;2.65;;
13240;SDS011;6687;47.790;7.322;2023-03-01T20:58:40;3.10;;;2.75;;
13240;SDS011;6687;47.790;7.322;2023-03-01T21:01:09;4.25;;;2.78;;
13240;SDS011;6687;47.790;7.322;2023-03-01T21:03:41;3.72;;;2.38;;
13240;SDS011;6687;47.790;7.322;2023-03-01T21:06:08;3.45;;;2.45;;
13240;SDS011;6687;47.790;7.322;2023-03-01T21:08:36;3.53;;;3.22;;
13240;SDS011;6687;47.790;7.322;2023-03-01T21:11:02;4.90;;;3.38;;
13240;SDS011;6687;47.790;7.322;2023-03-01T21:13:31;4.43;;;3.00;;
13240;SDS011;6687;47.790;7.322;2023-03-01T21:15:59;4.80;;;3.58;;
13240;SDS011;6687;47.790;7.322;2023-03-01T21:18:27;4.13;;;3.17;;
13240;SDS011;6687;47.790;7.322;2023-03-01T21:20:58;4.53;;;2.85;;
13240;SDS011;6687;47.790;7.322;2023-03-01T21:23:26;3.00;;;2.75;;
13240;SDS011;6687;47.790;7.322;2023-03-01T21:26:04;4.63;;;2.25;;
13240;SDS011;6687;47.790;7.322;2023-03-01T21:28:31;3.22;;;2.92;;
13240;SDS011;6687;47.790;7.322;2023-03-01T21:31:03;4.70;;;2.58;;
13240;SDS011;6687;47.790;7.322;2023-03-01T21:33:30;4.72;;;2.90;;
13240;SDS011;6687;47.790;7.322;2023-03-01T21:35:59;5.43;;;3.75;;
13240;SDS011;6687;47.790;7.322;2023-03-01T21:38:28;5.00;;;3.45;;
13240;SDS011;6687;47.790;7.322;2023-03-01T21:40:56;3.72;;;3.42;;
13240;SDS011;6687;47.790;7.322;2023-03-01T21:43:23;5.90;;;3.20;;
13240;SDS011;6687;47.790;7.322;2023-03-01T21:45:50;6.22;;;3.13;;
13240;SDS011;6687;47.790;7.322;2023-03-01T21:48:17;3.53;;;3.20;;
13240;SDS011;6687;47.790;7.322;2023-03-01T21:50:43;4.15;;;3.05;;